sensor_id;sensor_type;location;lat;lon;timestamp;P1;durP1;ratioP1;P2;durP2;ratioP2
84007;SDS011;74070;50.948;6.954;2023-12-14T00:02:05;44.67;;;25.83;;
84007;SDS011;74070;50.948;6.954;2023-12-14T00:04:31;50.93;;;31.47;;
84007;SDS011;74070;50.948;6.954;2023-12-14T00:06:58;36.00;;;22.23;;
84007;SDS011;74070;50.948;6.954;2023-12-14T00:09:24;35.13;;;21.23;;
84007;SDS011;74070;50.948;6.954;2023-12-14T00:11:52;44.57;;;28.10;;
84007;SDS011;74070;50.948;6.954;2023-12-14T00:14:18;36.87;;;24.70;;
84007;SDS011;74070;50.948;6.954;2023-12-14T00:16:45;37.03;;;24.37;;
84007;SDS011;74070;50.948;6.954;2023-12-14T00:19:11;61.70;;;36.50;;
84007;SDS011;74070;50.948;6.954;2023-12-14T00:21:38;41.53;;;25.43;;
84007;SDS011;74070;50.948;6.954;2023-12-14T00:24:05;45.83;;;27.17;;
84007;SDS011;74070;50.948;6.954;2023-12-14T00:26:31;44.53;;;26.40;;
84007;SDS011;74070;50.948;6.954;2023-12-14T00:28:58;44.27;;;25.87;;
84007;SDS011;74070;50.948;6.954;2023-12-14T00:31:25;64.93;;;37.27;;
84007;SDS011;74070;50.948;6.954;2023-12-14T00:33:53;51.50;;;29.30;;
84007;SDS011;74070;50.948;6.954;2023-12-14T00:36:20;55.13;;;29.77;;
84007;SDS011;74070;50.948;6.954;2023-12-14T00:38:47;60.17;;;30.17;;
84007;SDS011;74070;50.948;6.954;2023-12-14T00:41:15;59.53;;;30.97;;
84007;SDS011;74070;50.948;6.954;2023-12-14T00:43:41;60.53;;;30.00;;
84007;SDS011;74070;50.948;6.954;2023-12-14T00:46:08;62.07;;;30.73;;
84007;SDS011;74070;50.948;6.954;2023-12-14T00:48:35;57.40;;;29.17;;
84007;SDS011;74070;50.948;6.954;2023-12-14T00:51:01;61.07;;;30.27;;
84007;SDS011;74070;50.948;6.954;2023-12-14T00:53:28;67.03;;;31.30;;
84007;SDS011;74070;50.948;6.954;2023-12-14T00:55:54;84.33;;;38.03;;
84007;SDS011;74070;50.948;6.954;2023-12-14T00:58:21;75.40;;;34.47;;
84007;SDS011;74070;50.948;6.954;2023-12-14T01:00:48;76.23;;;32.50;;
84007;SDS011;74070;50.948;6.954;2023-12-14T01:03:14;73.57;;;32.23;;
84007;SDS011;74070;50.948;6.954;2023-12-14T01:05:41;74.67;;;32.40;;
84007;SDS011;74070;50.948;6.954;2023-12-14T01:08:07;67.80;;;32.27;;
84007;SDS011;74070;50.948;6.954;2023-12-14T01:10:35;67.40;;;31.73;;
84007;SDS011;74070;50.948;6.954;2023-12-14T01:13:01;63.60;;;31.40;;
84007;SDS011;74070;50.948;6.954;2023-12-14T01:15:27;69.83;;;33.37;;
84007;SDS011;74070;50.948;6.954;2023-12-14T01:17:54;77.30;;;34.90;;
84007;SDS011;74070;50.948;6.954;2023-12-14T01:20:21;62.07;;;30.20;;
84007;SDS011;74070;50.948;6.954;2023-12-14T01:22:48;66.43;;;33.10;;
84007;SDS011;74070;50.948;6.954;2023-12-14T01:25:14;70.37;;;32.47;;
84007;SDS011;74070;50.948;6.954;2023-12-14T01:27:41;84.50;;;35.70;;
84007;SDS011;74070;50.948;6.954;2023-12-14T01:30:09;77.67;;;34.53;;
84007;SDS011;74070;50.948;6.954;2023-12-14T01:32:35;73.50;;;33.43;;
84007;SDS011;74070;50.948;6.954;2023-12-14T01:35:02;81.17;;;34.77;;
84007;SDS011;74070;50.948;6.954;2023-12-14T01:37:30;84.77;;;33.53;;
84007;SDS011;74070;50.948;6.954;2023-12-14T01:39:56;82.80;;;34.47;;
84007;SDS011;74070;50.948;6.954;2023-12-14T01:42:23;80.13;;;33.33;;
84007;SDS011;74070;50.948;6.954;2023-12-14T01:44:49;85.40;;;37.13;;
84007;SDS011;74070;50.948;6.954;2023-12-14T01:47:16;81.87;;;35.33;;
84007;SDS011;74070;50.948;6.954;2023-12-14T01:49:43;85.40;;;34.93;;
84007;SDS011;74070;50.948;6.954;2023-12-14T01:52:09;85.73;;;35.07;;
84007;SDS011;74070;50.948;6.954;2023-12-14T01:54:36;82.77;;;35.83;;
84007;SDS011;74070;50.948;6.954;2023-12-14T01:57:02;90.60;;;36.60;;
84007;SDS011;74070;50.948;6.954;2023-12-14T01:59:29;92.63;;;38.20;;
84007;SDS011;74070;50.948;6.954;2023-12-14T02:01:56;86.40;;;35.33;;
84007;SDS011;74070;50.948;6.954;2023-12-14T02:04:23;82.57;;;33.77;;
84007;SDS011;74070;50.948;6.954;2023-12-14T02:06:49;90.50;;;35.80;;
84007;SDS011;74070;50.948;6.954;2023-12-14T02:09:15;89.90;;;36.03;;
84007;SDS011;74070;50.948;6.954;2023-12-14T02:11:42;81.23;;;35.63;;
84007;SDS011;74070;50.948;6.954;2023-12-14T02:14:09;91.87;;;38.70;;
84007;SDS011;74070;50.948;6.954;2023-12-14T02:16:36;84.20;;;36.03;;
84007;SDS011;74070;50.948;6.954;2023-12-14T02:19:02;78.27;;;33.50;;
84007;SDS011;74070;50.948;6.954;2023-12-14T02:21:28;69.23;;;31.87;;
84007;SDS011;74070;50.948;6.954;2023-12-14T02:23:56;70.20;;;31.67;;
84007;SDS011;74070;50.948;6.954;2023-12-14T02:26:23;68.47;;;32.33;;
84007;SDS011;74070;50.948;6.954;2023-12-14T02:28:50;70.97;;;32.23;;
84007;SDS011;74070;50.948;6.954;2023-12-14T02:31:18;67.97;;;30.87;;
84007;SDS011;74070;50.948;6.954;2023-12-14T02:33:43;69.77;;;32.13;;
84007;SDS011;74070;50.948;6.954;2023-12-14T02:36:10;69.27;;;32.97;;
84007;SDS011;74070;50.948;6.954;2023-12-14T02:38:36;78.17;;;33.47;;
84007;SDS011;74070;50.948;6.954;2023-12-14T02:41:04;76.80;;;32.87;;
84007;SDS011;74070;50.948;6.954;2023-12-14T02:43:30;72.47;;;33.33;;
84007;SDS011;74070;50.948;6.954;2023-12-14T02:45:57;62.23;;;28.83;;
84007;SDS011;74070;50.948;6.954;2023-12-14T02:48:23;66.37;;;31.10;;
84007;SDS011;74070;50.948;6.954;2023-12-14T02:50:50;52.93;;;27.47;;
84007;SDS011;74070;50.948;6.954;2023-12-14T02:53:16;54.53;;;29.50;;
84007;SDS011;74070;50.948;6.954;2023-12-14T02:55:43;51.73;;;28.20;;
84007;SDS011;74070;50.948;6.954;2023-12-14T02:58:10;52.23;;;28.17;;
84007;SDS011;74070;50.948;6.954;2023-12-14T03:00:36;53.10;;;26.77;;
84007;SDS011;74070;50.948;6.954;2023-12-14T03:03:03;51.90;;;25.50;;
84007;SDS011;74070;50.948;6.954;2023-12-14T03:05:29;47.70;;;26.13;;
84007;SDS011;74070;50.948;6.954;2023-12-14T03:07:56;51.53;;;27.77;;
84007;SDS011;74070;50.948;6.954;2023-12-14T03:10:23;55.07;;;28.93;;
84007;SDS011;74070;50.948;6.954;2023-12-14T03:12:50;57.43;;;27.60;;
84007;SDS011;74070;50.948;6.954;2023-12-14T03:15:17;52.47;;;26.87;;
84007;SDS011;74070;50.948;6.954;2023-12-14T03:17:43;53.80;;;28.70;;
84007;SDS011;74070;50.948;6.954;2023-12-14T03:20:10;56.80;;;29.77;;
84007;SDS011;74070;50.948;6.954;2023-12-14T03:22:38;57.10;;;27.97;;
84007;SDS011;74070;50.948;6.954;2023-12-14T03:25:05;47.00;;;25.87;;
84007;SDS011;74070;50.948;6.954;2023-12-14T03:27:32;45.50;;;27.73;;
84007;SDS011;74070;50.948;6.954;2023-12-14T03:29:59;51.70;;;25.30;;
84007;SDS011;74070;50.948;6.954;2023-12-14T03:32:26;50.43;;;25.33;;
84007;SDS011;74070;50.948;6.954;2023-12-14T03:34:53;54.57;;;27.47;;
84007;SDS011;74070;50.948;6.954;2023-12-14T03:37:20;60.33;;;31.10;;
84007;SDS011;74070;50.948;6.954;2023-12-14T03:39:46;56.97;;;30.10;;
84007;SDS011;74070;50.948;6.954;2023-12-14T03:42:13;61.23;;;30.93;;
84007;SDS011;74070;50.948;6.954;2023-12-14T03:44:39;68.77;;;31.37;;
84007;SDS011;74070;50.948;6.954;2023-12-14T03:47:06;69.00;;;31.77;;
84007;SDS011;74070;50.948;6.954;2023-12-14T03:49:39;57.80;;;29.77;;
84007;SDS011;74070;50.948;6.954;2023-12-14T03:52:08;68.97;;;32.93;;
84007;SDS011;74070;50.948;6.954;2023-12-14T03:54:33;57.03;;;30.80;;
84007;SDS011;74070;50.948;6.954;2023-12-14T03:57:00;51.53;;;28.83;;
84007;SDS011;74070;50.948;6.954;2023-12-14T03:59:27;45.30;;;26.87;;
84007;SDS011;74070;50.948;6.954;2023-12-14T04:01:53;39.47;;;25.27;;
84007;SDS011;74070;50.948;6.954;2023-12-14T04:04:20;39.23;;;24.47;;
84007;SDS011;74070;50.948;6.954;2023-12-14T04:06:46;33.73;;;22.87;;
84007;SDS011;74070;50.948;6.954;2023-12-14T04:09:13;32.90;;;22.87;;
84007;SDS011;74070;50.948;6.954;2023-12-14T04:11:40;37.73;;;23.77;;
84007;SDS011;74070;50.948;6.954;2023-12-14T04:14:08;28.73;;;22.13;;
84007;SDS011;74070;50.948;6.954;2023-12-14T04:16:34;35.00;;;23.43;;
84007;SDS011;74070;50.948;6.954;2023-12-14T04:19:01;35.27;;;22.77;;
84007;SDS011;74070;50.948;6.954;2023-12-14T04:21:27;31.83;;;22.50;;
84007;SDS011;74070;50.948;6.954;2023-12-14T04:23:54;30.57;;;21.33;;
84007;SDS011;74070;50.948;6.954;2023-12-14T04:26:21;30.03;;;21.20;;
84007;SDS011;74070;50.948;6.954;2023-12-14T04:28:47;27.50;;;20.23;;
84007;SDS011;74070;50.948;6.954;2023-12-14T04:31:14;29.13;;;20.10;;
84007;SDS011;74070;50.948;6.954;2023-12-14T04:33:41;36.17;;;23.60;;
84007;SDS011;74070;50.948;6.954;2023-12-14T04:36:09;42.50;;;24.70;;
84007;SDS011;74070;50.948;6.954;2023-12-14T04:38:35;34.77;;;22.90;;
84007;SDS011;74070;50.948;6.954;2023-12-14T04:41:02;39.10;;;24.60;;
84007;SDS011;74070;50.948;6.954;2023-12-14T04:43:28;40.03;;;23.43;;
84007;SDS011;74070;50.948;6.954;2023-12-14T04:45:55;48.97;;;29.17;;
84007;SDS011;74070;50.948;6.954;2023-12-14T04:48:22;49.53;;;27.27;;
84007;SDS011;74070;50.948;6.954;2023-12-14T04:50:48;45.47;;;25.80;;
84007;SDS011;74070;50.948;6.954;2023-12-14T04:53:15;55.90;;;29.47;;
84007;SDS011;74070;50.948;6.954;2023-12-14T04:55:42;47.83;;;27.67;;
84007;SDS011;74070;50.948;6.954;2023-12-14T04:58:10;49.43;;;27.73;;
84007;SDS011;74070;50.948;6.954;2023-12-14T05:00:37;47.37;;;27.37;;
84007;SDS011;74070;50.948;6.954;2023-12-14T05:03:03;55.40;;;29.43;;
84007;SDS011;74070;50.948;6.954;2023-12-14T05:05:30;42.13;;;23.30;;
84007;SDS011;74070;50.948;6.954;2023-12-14T05:07:57;41.60;;;26.67;;
84007;SDS011;74070;50.948;6.954;2023-12-14T05:10:23;46.07;;;27.40;;
84007;SDS011;74070;50.948;6.954;2023-12-14T05:12:50;49.67;;;27.50;;
84007;SDS011;74070;50.948;6.954;2023-12-14T05:15:17;50.90;;;25.90;;
84007;SDS011;74070;50.948;6.954;2023-12-14T05:17:45;51.17;;;28.00;;
84007;SDS011;74070;50.948;6.954;2023-12-14T05:20:12;46.47;;;27.53;;
84007;SDS011;74070;50.948;6.954;2023-12-14T05:22:39;55.87;;;28.60;;
84007;SDS011;74070;50.948;6.954;2023-12-14T05:25:07;54.90;;;28.67;;
84007;SDS011;74070;50.948;6.954;2023-12-14T05:27:34;48.23;;;28.60;;
84007;SDS011;74070;50.948;6.954;2023-12-14T05:30:00;50.07;;;28.23;;
84007;SDS011;74070;50.948;6.954;2023-12-14T05:32:27;47.97;;;25.87;;
84007;SDS011;74070;50.948;6.954;2023-12-14T05:34:53;48.77;;;26.13;;
84007;SDS011;74070;50.948;6.954;2023-12-14T05:37:20;43.73;;;23.90;;
84007;SDS011;74070;50.948;6.954;2023-12-14T05:39:47;39.73;;;23.70;;
84007;SDS011;74070;50.948;6.954;2023-12-14T05:42:16;41.23;;;24.00;;
84007;SDS011;74070;50.948;6.954;2023-12-14T05:44:43;41.10;;;22.13;;
84007;SDS011;74070;50.948;6.954;2023-12-14T05:47:09;39.17;;;25.13;;
84007;SDS011;74070;50.948;6.954;2023-12-14T05:49:36;37.63;;;22.17;;
84007;SDS011;74070;50.948;6.954;2023-12-14T05:52:02;37.37;;;20.97;;
84007;SDS011;74070;50.948;6.954;2023-12-14T05:54:29;35.03;;;20.30;;
84007;SDS011;74070;50.948;6.954;2023-12-14T05:56:56;44.03;;;23.23;;
84007;SDS011;74070;50.948;6.954;2023-12-14T05:59:22;44.70;;;23.43;;
84007;SDS011;74070;50.948;6.954;2023-12-14T06:01:49;40.80;;;21.20;;
84007;SDS011;74070;50.948;6.954;2023-12-14T06:04:15;39.27;;;22.53;;
84007;SDS011;74070;50.948;6.954;2023-12-14T06:06:43;42.93;;;21.93;;
84007;SDS011;74070;50.948;6.954;2023-12-14T06:09:10;47.60;;;24.20;;
84007;SDS011;74070;50.948;6.954;2023-12-14T06:11:37;47.23;;;24.23;;
84007;SDS011;74070;50.948;6.954;2023-12-14T06:14:04;47.77;;;23.80;;
84007;SDS011;74070;50.948;6.954;2023-12-14T06:16:31;46.70;;;24.87;;
84007;SDS011;74070;50.948;6.954;2023-12-14T06:18:57;50.30;;;25.73;;
84007;SDS011;74070;50.948;6.954;2023-12-14T06:21:25;49.80;;;25.83;;
84007;SDS011;74070;50.948;6.954;2023-12-14T06:23:52;45.47;;;24.70;;
84007;SDS011;74070;50.948;6.954;2023-12-14T06:26:19;53.00;;;27.17;;
84007;SDS011;74070;50.948;6.954;2023-12-14T06:28:46;47.10;;;25.27;;
84007;SDS011;74070;50.948;6.954;2023-12-14T06:31:13;46.70;;;26.63;;
84007;SDS011;74070;50.948;6.954;2023-12-14T06:33:41;56.10;;;28.13;;
84007;SDS011;74070;50.948;6.954;2023-12-14T06:36:08;44.00;;;26.17;;
84007;SDS011;74070;50.948;6.954;2023-12-14T06:38:37;51.20;;;25.70;;
84007;SDS011;74070;50.948;6.954;2023-12-14T06:41:01;50.47;;;28.30;;
84007;SDS011;74070;50.948;6.954;2023-12-14T06:43:28;46.93;;;25.83;;
84007;SDS011;74070;50.948;6.954;2023-12-14T06:45:54;53.67;;;29.50;;
84007;SDS011;74070;50.948;6.954;2023-12-14T06:48:22;51.67;;;26.70;;
84007;SDS011;74070;50.948;6.954;2023-12-14T06:50:48;51.40;;;26.40;;
84007;SDS011;74070;50.948;6.954;2023-12-14T06:53:15;53.30;;;25.93;;
84007;SDS011;74070;50.948;6.954;2023-12-14T06:55:41;59.53;;;29.33;;
84007;SDS011;74070;50.948;6.954;2023-12-14T06:58:08;65.33;;;29.27;;
84007;SDS011;74070;50.948;6.954;2023-12-14T07:00:35;59.10;;;29.80;;
84007;SDS011;74070;50.948;6.954;2023-12-14T07:03:01;65.33;;;31.03;;
84007;SDS011;74070;50.948;6.954;2023-12-14T07:05:28;75.83;;;33.43;;
84007;SDS011;74070;50.948;6.954;2023-12-14T07:07:55;76.00;;;36.03;;
84007;SDS011;74070;50.948;6.954;2023-12-14T07:10:22;75.37;;;37.10;;
84007;SDS011;74070;50.948;6.954;2023-12-14T07:12:48;71.37;;;33.60;;
84007;SDS011;74070;50.948;6.954;2023-12-14T07:15:15;78.27;;;35.40;;
84007;SDS011;74070;50.948;6.954;2023-12-14T07:17:42;72.13;;;33.13;;
84007;SDS011;74070;50.948;6.954;2023-12-14T07:20:09;88.83;;;36.33;;
84007;SDS011;74070;50.948;6.954;2023-12-14T07:22:35;88.83;;;35.07;;
84007;SDS011;74070;50.948;6.954;2023-12-14T07:25:02;88.93;;;36.30;;
84007;SDS011;74070;50.948;6.954;2023-12-14T07:27:29;91.13;;;33.40;;
84007;SDS011;74070;50.948;6.954;2023-12-14T07:29:56;97.07;;;35.80;;
84007;SDS011;74070;50.948;6.954;2023-12-14T07:32:23;67.53;;;26.70;;
84007;SDS011;74070;50.948;6.954;2023-12-14T07:34:50;82.10;;;30.70;;
84007;SDS011;74070;50.948;6.954;2023-12-14T07:37:17;89.60;;;31.60;;
84007;SDS011;74070;50.948;6.954;2023-12-14T07:39:43;83.83;;;31.17;;
84007;SDS011;74070;50.948;6.954;2023-12-14T07:42:10;85.53;;;30.43;;
84007;SDS011;74070;50.948;6.954;2023-12-14T07:44:36;73.27;;;29.20;;
84007;SDS011;74070;50.948;6.954;2023-12-14T07:47:03;87.33;;;31.63;;
84007;SDS011;74070;50.948;6.954;2023-12-14T07:49:30;93.47;;;32.63;;
84007;SDS011;74070;50.948;6.954;2023-12-14T07:51:57;97.70;;;33.50;;
84007;SDS011;74070;50.948;6.954;2023-12-14T07:54:24;95.70;;;31.57;;
84007;SDS011;74070;50.948;6.954;2023-12-14T07:56:50;90.93;;;33.20;;
84007;SDS011;74070;50.948;6.954;2023-12-14T07:59:17;82.30;;;29.90;;
84007;SDS011;74070;50.948;6.954;2023-12-14T08:01:43;78.60;;;30.13;;
84007;SDS011;74070;50.948;6.954;2023-12-14T08:04:10;75.57;;;27.63;;
84007;SDS011;74070;50.948;6.954;2023-12-14T08:06:36;75.53;;;28.03;;
84007;SDS011;74070;50.948;6.954;2023-12-14T08:09:06;72.03;;;27.37;;
84007;SDS011;74070;50.948;6.954;2023-12-14T08:11:33;67.07;;;25.80;;
84007;SDS011;74070;50.948;6.954;2023-12-14T08:13:59;65.83;;;27.27;;
84007;SDS011;74070;50.948;6.954;2023-12-14T08:16:25;60.93;;;23.90;;
84007;SDS011;74070;50.948;6.954;2023-12-14T08:18:52;61.17;;;25.60;;
84007;SDS011;74070;50.948;6.954;2023-12-14T08:21:19;56.60;;;23.73;;
84007;SDS011;74070;50.948;6.954;2023-12-14T08:23:47;54.33;;;22.03;;
84007;SDS011;74070;50.948;6.954;2023-12-14T08:26:14;65.47;;;24.90;;
84007;SDS011;74070;50.948;6.954;2023-12-14T08:28:41;58.37;;;23.07;;
84007;SDS011;74070;50.948;6.954;2023-12-14T08:31:08;55.50;;;23.70;;
84007;SDS011;74070;50.948;6.954;2023-12-14T08:33:35;66.63;;;22.77;;
84007;SDS011;74070;50.948;6.954;2023-12-14T08:36:01;55.03;;;22.23;;
84007;SDS011;74070;50.948;6.954;2023-12-14T08:38:29;45.87;;;20.57;;
84007;SDS011;74070;50.948;6.954;2023-12-14T08:40:56;52.57;;;21.27;;
84007;SDS011;74070;50.948;6.954;2023-12-14T08:43:23;51.83;;;20.83;;
84007;SDS011;74070;50.948;6.954;2023-12-14T08:45:49;50.17;;;20.23;;
84007;SDS011;74070;50.948;6.954;2023-12-14T08:48:16;41.97;;;19.20;;
84007;SDS011;74070;50.948;6.954;2023-12-14T08:50:43;36.40;;;18.33;;
84007;SDS011;74070;50.948;6.954;2023-12-14T08:53:10;46.73;;;20.20;;
84007;SDS011;74070;50.948;6.954;2023-12-14T08:55:37;45.50;;;20.83;;
84007;SDS011;74070;50.948;6.954;2023-12-14T08:58:04;41.40;;;19.97;;
84007;SDS011;74070;50.948;6.954;2023-12-14T09:00:30;51.37;;;21.00;;
84007;SDS011;74070;50.948;6.954;2023-12-14T09:02:57;45.60;;;22.63;;
84007;SDS011;74070;50.948;6.954;2023-12-14T09:05:23;47.37;;;21.07;;
84007;SDS011;74070;50.948;6.954;2023-12-14T09:07:50;47.47;;;21.37;;
84007;SDS011;74070;50.948;6.954;2023-12-14T09:10:17;49.30;;;21.37;;
84007;SDS011;74070;50.948;6.954;2023-12-14T09:12:45;50.30;;;21.27;;
84007;SDS011;74070;50.948;6.954;2023-12-14T09:15:12;47.63;;;24.20;;
84007;SDS011;74070;50.948;6.954;2023-12-14T09:17:39;43.23;;;20.70;;
84007;SDS011;74070;50.948;6.954;2023-12-14T09:20:06;47.13;;;22.07;;
84007;SDS011;74070;50.948;6.954;2023-12-14T09:22:33;49.67;;;21.17;;
84007;SDS011;74070;50.948;6.954;2023-12-14T09:25:00;51.77;;;23.03;;
84007;SDS011;74070;50.948;6.954;2023-12-14T09:27:27;52.27;;;22.87;;
84007;SDS011;74070;50.948;6.954;2023-12-14T09:29:55;51.67;;;22.60;;
84007;SDS011;74070;50.948;6.954;2023-12-14T09:32:22;57.27;;;25.60;;
84007;SDS011;74070;50.948;6.954;2023-12-14T09:34:49;57.27;;;25.50;;
84007;SDS011;74070;50.948;6.954;2023-12-14T09:37:17;58.57;;;24.63;;
84007;SDS011;74070;50.948;6.954;2023-12-14T09:39:44;58.60;;;26.37;;
84007;SDS011;74070;50.948;6.954;2023-12-14T09:42:11;54.80;;;23.73;;
84007;SDS011;74070;50.948;6.954;2023-12-14T09:44:37;45.37;;;18.87;;
84007;SDS011;74070;50.948;6.954;2023-12-14T09:47:04;57.90;;;25.30;;
84007;SDS011;74070;50.948;6.954;2023-12-14T09:49:30;55.47;;;23.67;;
84007;SDS011;74070;50.948;6.954;2023-12-14T09:51:57;60.33;;;25.20;;
84007;SDS011;74070;50.948;6.954;2023-12-14T09:54:24;59.73;;;26.40;;
84007;SDS011;74070;50.948;6.954;2023-12-14T09:56:51;59.07;;;24.37;;
84007;SDS011;74070;50.948;6.954;2023-12-14T09:59:18;50.33;;;22.40;;
84007;SDS011;74070;50.948;6.954;2023-12-14T10:01:44;62.27;;;24.67;;
84007;SDS011;74070;50.948;6.954;2023-12-14T10:04:14;62.37;;;24.63;;
84007;SDS011;74070;50.948;6.954;2023-12-14T10:06:40;68.07;;;27.30;;
84007;SDS011;74070;50.948;6.954;2023-12-14T10:09:06;71.37;;;28.97;;
84007;SDS011;74070;50.948;6.954;2023-12-14T10:11:36;77.07;;;29.53;;
84007;SDS011;74070;50.948;6.954;2023-12-14T10:14:17;69.00;;;29.33;;
84007;SDS011;74070;50.948;6.954;2023-12-14T10:16:36;79.33;;;30.90;;
84007;SDS011;74070;50.948;6.954;2023-12-14T10:19:03;88.57;;;31.70;;
84007;SDS011;74070;50.948;6.954;2023-12-14T10:21:30;77.47;;;32.10;;
84007;SDS011;74070;50.948;6.954;2023-12-14T10:23:56;124.27;;;53.17;;
84007;SDS011;74070;50.948;6.954;2023-12-14T10:26:25;79.60;;;32.03;;
84007;SDS011;74070;50.948;6.954;2023-12-14T10:28:50;97.63;;;39.43;;
84007;SDS011;74070;50.948;6.954;2023-12-14T10:31:18;78.17;;;30.37;;
84007;SDS011;74070;50.948;6.954;2023-12-14T10:33:44;71.13;;;30.00;;
84007;SDS011;74070;50.948;6.954;2023-12-14T10:36:12;70.63;;;28.83;;
84007;SDS011;74070;50.948;6.954;2023-12-14T10:38:39;73.47;;;30.43;;
84007;SDS011;74070;50.948;6.954;2023-12-14T10:41:07;74.70;;;31.13;;
84007;SDS011;74070;50.948;6.954;2023-12-14T10:43:34;83.03;;;32.10;;
84007;SDS011;74070;50.948;6.954;2023-12-14T10:46:00;74.00;;;30.07;;
84007;SDS011;74070;50.948;6.954;2023-12-14T10:48:26;69.33;;;30.57;;
84007;SDS011;74070;50.948;6.954;2023-12-14T10:50:53;72.83;;;30.10;;
84007;SDS011;74070;50.948;6.954;2023-12-14T10:53:19;60.50;;;29.70;;
84007;SDS011;74070;50.948;6.954;2023-12-14T10:55:46;68.50;;;30.30;;
84007;SDS011;74070;50.948;6.954;2023-12-14T10:58:13;72.33;;;31.13;;
84007;SDS011;74070;50.948;6.954;2023-12-14T11:00:40;64.90;;;28.90;;
84007;SDS011;74070;50.948;6.954;2023-12-14T11:03:07;55.17;;;26.60;;
84007;SDS011;74070;50.948;6.954;2023-12-14T11:05:35;55.80;;;25.27;;
84007;SDS011;74070;50.948;6.954;2023-12-14T11:08:02;51.23;;;25.83;;
84007;SDS011;74070;50.948;6.954;2023-12-14T11:10:37;50.87;;;26.07;;
84007;SDS011;74070;50.948;6.954;2023-12-14T11:13:06;47.27;;;26.23;;
84007;SDS011;74070;50.948;6.954;2023-12-14T11:15:34;43.10;;;25.13;;
84007;SDS011;74070;50.948;6.954;2023-12-14T11:20:49;46.17;;;25.30;;
84007;SDS011;74070;50.948;6.954;2023-12-14T11:23:18;52.33;;;27.80;;
84007;SDS011;74070;50.948;6.954;2023-12-14T11:25:43;46.93;;;24.93;;
84007;SDS011;74070;50.948;6.954;2023-12-14T11:28:11;65.23;;;41.03;;
84007;SDS011;74070;50.948;6.954;2023-12-14T11:30:37;44.03;;;24.90;;
84007;SDS011;74070;50.948;6.954;2023-12-14T11:33:04;50.40;;;26.80;;
84007;SDS011;74070;50.948;6.954;2023-12-14T11:35:30;59.30;;;34.50;;
84007;SDS011;74070;50.948;6.954;2023-12-14T11:37:57;51.03;;;27.73;;
84007;SDS011;74070;50.948;6.954;2023-12-14T11:40:23;53.23;;;26.27;;
84007;SDS011;74070;50.948;6.954;2023-12-14T11:42:57;42.90;;;23.53;;
84007;SDS011;74070;50.948;6.954;2023-12-14T11:45:23;39.27;;;23.37;;
84007;SDS011;74070;50.948;6.954;2023-12-14T11:47:51;42.93;;;21.87;;
84007;SDS011;74070;50.948;6.954;2023-12-14T11:50:18;36.40;;;22.43;;
84007;SDS011;74070;50.948;6.954;2023-12-14T11:52:45;54.53;;;30.40;;
84007;SDS011;74070;50.948;6.954;2023-12-14T11:55:11;58.70;;;31.67;;
84007;SDS011;74070;50.948;6.954;2023-12-14T11:57:38;51.10;;;29.13;;
84007;SDS011;74070;50.948;6.954;2023-12-14T12:00:05;43.23;;;23.83;;
84007;SDS011;74070;50.948;6.954;2023-12-14T12:02:32;64.07;;;34.53;;
84007;SDS011;74070;50.948;6.954;2023-12-14T12:04:58;55.53;;;30.73;;
84007;SDS011;74070;50.948;6.954;2023-12-14T12:07:25;47.63;;;26.43;;
84007;SDS011;74070;50.948;6.954;2023-12-14T12:09:52;44.93;;;24.13;;
84007;SDS011;74070;50.948;6.954;2023-12-14T12:12:18;67.70;;;33.07;;
84007;SDS011;74070;50.948;6.954;2023-12-14T12:14:46;44.93;;;25.37;;
84007;SDS011;74070;50.948;6.954;2023-12-14T12:17:13;49.00;;;25.33;;
84007;SDS011;74070;50.948;6.954;2023-12-14T12:19:40;49.73;;;29.50;;
84007;SDS011;74070;50.948;6.954;2023-12-14T12:22:08;50.30;;;29.87;;
84007;SDS011;74070;50.948;6.954;2023-12-14T12:24:34;44.50;;;25.50;;
84007;SDS011;74070;50.948;6.954;2023-12-14T12:27:01;38.50;;;22.27;;
84007;SDS011;74070;50.948;6.954;2023-12-14T12:29:28;42.63;;;22.97;;
84007;SDS011;74070;50.948;6.954;2023-12-14T12:31:54;42.40;;;26.87;;
84007;SDS011;74070;50.948;6.954;2023-12-14T12:34:21;35.87;;;21.83;;
84007;SDS011;74070;50.948;6.954;2023-12-14T12:36:48;34.43;;;20.67;;
84007;SDS011;74070;50.948;6.954;2023-12-14T12:39:14;36.73;;;22.97;;
84007;SDS011;74070;50.948;6.954;2023-12-14T12:41:41;31.67;;;20.20;;
84007;SDS011;74070;50.948;6.954;2023-12-14T12:44:08;34.50;;;20.20;;
84007;SDS011;74070;50.948;6.954;2023-12-14T12:46:35;35.23;;;21.23;;
84007;SDS011;74070;50.948;6.954;2023-12-14T12:49:02;48.80;;;28.87;;
84007;SDS011;74070;50.948;6.954;2023-12-14T12:51:28;38.47;;;23.80;;
84007;SDS011;74070;50.948;6.954;2023-12-14T12:53:55;33.07;;;21.07;;
84007;SDS011;74070;50.948;6.954;2023-12-14T12:56:21;40.93;;;22.30;;
84007;SDS011;74070;50.948;6.954;2023-12-14T12:58:48;32.23;;;18.63;;
84007;SDS011;74070;50.948;6.954;2023-12-14T13:01:16;35.17;;;18.83;;
84007;SDS011;74070;50.948;6.954;2023-12-14T13:03:42;32.87;;;19.60;;
84007;SDS011;74070;50.948;6.954;2023-12-14T13:06:09;26.37;;;16.50;;
84007;SDS011;74070;50.948;6.954;2023-12-14T13:08:35;25.77;;;15.40;;
84007;SDS011;74070;50.948;6.954;2023-12-14T13:11:02;31.07;;;18.03;;
84007;SDS011;74070;50.948;6.954;2023-12-14T13:13:29;24.93;;;15.40;;
84007;SDS011;74070;50.948;6.954;2023-12-14T13:15:55;29.30;;;18.87;;
84007;SDS011;74070;50.948;6.954;2023-12-14T13:18:22;29.33;;;20.07;;
84007;SDS011;74070;50.948;6.954;2023-12-14T13:20:49;43.20;;;24.60;;
84007;SDS011;74070;50.948;6.954;2023-12-14T13:23:17;25.70;;;16.60;;
84007;SDS011;74070;50.948;6.954;2023-12-14T13:25:44;25.63;;;15.50;;
84007;SDS011;74070;50.948;6.954;2023-12-14T13:28:12;23.30;;;16.40;;
84007;SDS011;74070;50.948;6.954;2023-12-14T13:30:38;20.90;;;15.00;;
84007;SDS011;74070;50.948;6.954;2023-12-14T13:33:05;24.33;;;14.83;;
84007;SDS011;74070;50.948;6.954;2023-12-14T13:35:31;24.97;;;16.73;;
84007;SDS011;74070;50.948;6.954;2023-12-14T13:37:58;43.60;;;26.73;;
84007;SDS011;74070;50.948;6.954;2023-12-14T13:40:24;21.77;;;14.30;;
84007;SDS011;74070;50.948;6.954;2023-12-14T13:42:51;22.70;;;15.53;;
84007;SDS011;74070;50.948;6.954;2023-12-14T13:45:18;24.97;;;17.10;;
84007;SDS011;74070;50.948;6.954;2023-12-14T13:47:45;25.17;;;17.87;;
84007;SDS011;74070;50.948;6.954;2023-12-14T13:50:12;23.77;;;16.27;;
84007;SDS011;74070;50.948;6.954;2023-12-14T13:52:39;21.07;;;14.90;;
84007;SDS011;74070;50.948;6.954;2023-12-14T13:55:06;22.77;;;16.17;;
84007;SDS011;74070;50.948;6.954;2023-12-14T13:57:32;23.87;;;15.70;;
84007;SDS011;74070;50.948;6.954;2023-12-14T14:00:00;20.97;;;14.40;;
84007;SDS011;74070;50.948;6.954;2023-12-14T14:02:26;26.90;;;18.20;;
84007;SDS011;74070;50.948;6.954;2023-12-14T14:04:53;23.67;;;16.37;;
84007;SDS011;74070;50.948;6.954;2023-12-14T14:07:19;21.87;;;14.43;;
84007;SDS011;74070;50.948;6.954;2023-12-14T14:09:46;14.40;;;11.07;;
84007;SDS011;74070;50.948;6.954;2023-12-14T14:12:13;19.27;;;12.73;;
84007;SDS011;74070;50.948;6.954;2023-12-14T14:14:39;13.50;;;10.53;;
84007;SDS011;74070;50.948;6.954;2023-12-14T14:17:06;20.90;;;13.83;;
84007;SDS011;74070;50.948;6.954;2023-12-14T14:19:32;19.00;;;13.10;;
84007;SDS011;74070;50.948;6.954;2023-12-14T14:21:59;113.47;;;66.60;;